sensor_id;sensor_type;location;lat;lon;timestamp;P1;durP1;ratioP1;P2;durP2;ratioP2
57327;SDS011;43162;51.040;18.244;2023-07-08T00:01:40;3.10;;;2.20;;
57327;SDS011;43162;51.040;18.244;2023-07-08T00:04:05;2.80;;;2.10;;
57327;SDS011;43162;51.040;18.244;2023-07-08T00:06:32;4.80;;;2.70;;
57327;SDS011;43162;51.040;18.244;2023-07-08T00:08:58;2.90;;;2.20;;
57327;SDS011;43162;51.040;18.244;2023-07-08T00:11:24;2.90;;;2.30;;
57327;SDS011;43162;51.040;18.244;2023-07-08T00:13:50;2.60;;;2.40;;
57327;SDS011;43162;51.040;18.244;2023-07-08T00:16:16;3.10;;;2.50;;
57327;SDS011;43162;51.040;18.244;2023-07-08T00:18:43;4.40;;;2.20;;
57327;SDS011;43162;51.040;18.244;2023-07-08T00:21:12;3.30;;;1.90;;
57327;SDS011;43162;51.040;18.244;2023-07-08T00:23:43;5.70;;;1.90;;
57327;SDS011;43162;51.040;18.244;2023-07-08T00:26:13;4.70;;;2.40;;
57327;SDS011;43162;51.040;18.244;2023-07-08T00:28:40;3.00;;;2.20;;
57327;SDS011;43162;51.040;18.244;2023-07-08T00:31:11;2.70;;;2.10;;
57327;SDS011;43162;51.040;18.244;2023-07-08T00:33:37;3.00;;;2.50;;
57327;SDS011;43162;51.040;18.244;2023-07-08T00:36:05;3.30;;;2.30;;
57327;SDS011;43162;51.040;18.244;2023-07-08T00:38:33;6.20;;;3.10;;
57327;SDS011;43162;51.040;18.244;2023-07-08T00:46:18;3.80;;;2.30;;
57327;SDS011;43162;51.040;18.244;2023-07-08T00:48:49;4.90;;;2.70;;
57327;SDS011;43162;51.040;18.244;2023-07-08T00:51:16;4.10;;;3.00;;
57327;SDS011;43162;51.040;18.244;2023-07-08T00:53:42;4.60;;;2.50;;
57327;SDS011;43162;51.040;18.244;2023-07-08T00:58:38;2.80;;;2.40;;
57327;SDS011;43162;51.040;18.244;2023-07-08T01:01:04;6.60;;;2.70;;
57327;SDS011;43162;51.040;18.244;2023-07-08T01:03:30;3.30;;;2.70;;
57327;SDS011;43162;51.040;18.244;2023-07-08T01:05:56;8.90;;;3.40;;
57327;SDS011;43162;51.040;18.244;2023-07-08T01:08:25;10.60;;;3.20;;
57327;SDS011;43162;51.040;18.244;2023-07-08T01:10:56;3.80;;;2.60;;
57327;SDS011;43162;51.040;18.244;2023-07-08T01:13:23;4.80;;;3.20;;
57327;SDS011;43162;51.040;18.244;2023-07-08T01:15:49;5.00;;;2.80;;
57327;SDS011;43162;51.040;18.244;2023-07-08T01:18:15;8.10;;;2.40;;
57327;SDS011;43162;51.040;18.244;2023-07-08T01:20:42;5.90;;;2.90;;
57327;SDS011;43162;51.040;18.244;2023-07-08T01:23:07;5.80;;;2.70;;
57327;SDS011;43162;51.040;18.244;2023-07-08T01:25:34;2.90;;;2.40;;
57327;SDS011;43162;51.040;18.244;2023-07-08T01:28:00;5.50;;;2.60;;
57327;SDS011;43162;51.040;18.244;2023-07-08T01:30:27;5.10;;;2.80;;
57327;SDS011;43162;51.040;18.244;2023-07-08T01:32:55;8.60;;;2.70;;
57327;SDS011;43162;51.040;18.244;2023-07-08T01:35:21;4.90;;;2.80;;
57327;SDS011;43162;51.040;18.244;2023-07-08T01:37:54;3.10;;;2.70;;
57327;SDS011;43162;51.040;18.244;2023-07-08T01:40:23;4.10;;;2.60;;
57327;SDS011;43162;51.040;18.244;2023-07-08T01:42:49;7.70;;;2.50;;
57327;SDS011;43162;51.040;18.244;2023-07-08T01:45:17;3.50;;;2.30;;
57327;SDS011;43162;51.040;18.244;2023-07-08T01:47:43;4.40;;;2.80;;
57327;SDS011;43162;51.040;18.244;2023-07-08T01:50:09;3.40;;;2.60;;
57327;SDS011;43162;51.040;18.244;2023-07-08T01:52:35;7.40;;;3.00;;
57327;SDS011;43162;51.040;18.244;2023-07-08T01:55:01;3.10;;;2.50;;
57327;SDS011;43162;51.040;18.244;2023-07-08T01:57:26;8.20;;;2.80;;
57327;SDS011;43162;51.040;18.244;2023-07-08T01:59:52;6.50;;;2.50;;
57327;SDS011;43162;51.040;18.244;2023-07-08T02:02:17;5.80;;;2.50;;
57327;SDS011;43162;51.040;18.244;2023-07-08T02:04:43;6.80;;;2.40;;
57327;SDS011;43162;51.040;18.244;2023-07-08T02:07:08;4.80;;;2.10;;
57327;SDS011;43162;51.040;18.244;2023-07-08T02:09:33;3.80;;;2.50;;
57327;SDS011;43162;51.040;18.244;2023-07-08T02:11:59;3.60;;;2.60;;
57327;SDS011;43162;51.040;18.244;2023-07-08T02:14:24;7.30;;;2.30;;
57327;SDS011;43162;51.040;18.244;2023-07-08T02:16:50;3.30;;;2.40;;
57327;SDS011;43162;51.040;18.244;2023-07-08T02:19:15;3.60;;;2.90;;
57327;SDS011;43162;51.040;18.244;2023-07-08T02:21:41;5.50;;;2.70;;
57327;SDS011;43162;51.040;18.244;2023-07-08T02:24:06;3.60;;;2.50;;
57327;SDS011;43162;51.040;18.244;2023-07-08T02:26:32;5.40;;;2.60;;
57327;SDS011;43162;51.040;18.244;2023-07-08T02:28:58;7.00;;;2.80;;
57327;SDS011;43162;51.040;18.244;2023-07-08T02:31:24;10.90;;;3.10;;
57327;SDS011;43162;51.040;18.244;2023-07-08T02:33:50;7.80;;;2.80;;
57327;SDS011;43162;51.040;18.244;2023-07-08T02:36:16;4.70;;;2.40;;
57327;SDS011;43162;51.040;18.244;2023-07-08T02:38:41;3.00;;;2.70;;
57327;SDS011;43162;51.040;18.244;2023-07-08T02:41:07;6.80;;;3.10;;
57327;SDS011;43162;51.040;18.244;2023-07-08T02:43:33;4.50;;;2.50;;
57327;SDS011;43162;51.040;18.244;2023-07-08T02:45:59;9.60;;;2.50;;
57327;SDS011;43162;51.040;18.244;2023-07-08T02:48:24;3.40;;;2.30;;
57327;SDS011;43162;51.040;18.244;2023-07-08T02:50:50;4.30;;;2.20;;
57327;SDS011;43162;51.040;18.244;2023-07-08T02:53:15;3.40;;;2.20;;
57327;SDS011;43162;51.040;18.244;2023-07-08T02:55:41;3.80;;;2.00;;
57327;SDS011;43162;51.040;18.244;2023-07-08T02:58:08;4.40;;;2.30;;
57327;SDS011;43162;51.040;18.244;2023-07-08T03:00:34;4.30;;;1.70;;
57327;SDS011;43162;51.040;18.244;2023-07-08T03:03:03;4.00;;;2.40;;
57327;SDS011;43162;51.040;18.244;2023-07-08T03:05:28;4.80;;;2.30;;
57327;SDS011;43162;51.040;18.244;2023-07-08T03:07:54;3.60;;;2.30;;
57327;SDS011;43162;51.040;18.244;2023-07-08T03:10:19;2.10;;;2.00;;
57327;SDS011;43162;51.040;18.244;2023-07-08T03:12:45;6.60;;;2.60;;
57327;SDS011;43162;51.040;18.244;2023-07-08T03:15:10;2.90;;;2.30;;
57327;SDS011;43162;51.040;18.244;2023-07-08T03:17:36;9.10;;;2.50;;
57327;SDS011;43162;51.040;18.244;2023-07-08T03:20:01;9.30;;;2.50;;
57327;SDS011;43162;51.040;18.244;2023-07-08T03:22:26;7.40;;;2.60;;
57327;SDS011;43162;51.040;18.244;2023-07-08T03:24:52;4.80;;;1.80;;
57327;SDS011;43162;51.040;18.244;2023-07-08T03:27:17;2.70;;;2.20;;
57327;SDS011;43162;51.040;18.244;2023-07-08T03:29:43;8.20;;;2.70;;
57327;SDS011;43162;51.040;18.244;2023-07-08T03:32:10;4.40;;;2.60;;
57327;SDS011;43162;51.040;18.244;2023-07-08T03:34:36;3.60;;;2.40;;
57327;SDS011;43162;51.040;18.244;2023-07-08T03:37:02;5.10;;;2.70;;
57327;SDS011;43162;51.040;18.244;2023-07-08T03:39:27;5.40;;;2.90;;
57327;SDS011;43162;51.040;18.244;2023-07-08T03:41:53;3.40;;;2.60;;
57327;SDS011;43162;51.040;18.244;2023-07-08T03:44:19;8.20;;;3.00;;
57327;SDS011;43162;51.040;18.244;2023-07-08T03:46:45;6.00;;;2.80;;
57327;SDS011;43162;51.040;18.244;2023-07-08T03:49:11;5.70;;;2.40;;
57327;SDS011;43162;51.040;18.244;2023-07-08T03:51:38;4.50;;;2.60;;
57327;SDS011;43162;51.040;18.244;2023-07-08T03:54:04;5.20;;;2.50;;
57327;SDS011;43162;51.040;18.244;2023-07-08T03:56:30;2.40;;;1.70;;
57327;SDS011;43162;51.040;18.244;2023-07-08T03:58:56;5.10;;;2.60;;
57327;SDS011;43162;51.040;18.244;2023-07-08T04:01:23;6.60;;;2.30;;
57327;SDS011;43162;51.040;18.244;2023-07-08T04:03:50;9.00;;;2.30;;
57327;SDS011;43162;51.040;18.244;2023-07-08T04:06:16;7.30;;;2.50;;
57327;SDS011;43162;51.040;18.244;2023-07-08T04:08:42;10.70;;;2.70;;
57327;SDS011;43162;51.040;18.244;2023-07-08T04:11:08;9.00;;;2.60;;
57327;SDS011;43162;51.040;18.244;2023-07-08T04:13:34;6.60;;;2.70;;
57327;SDS011;43162;51.040;18.244;2023-07-08T04:16:00;5.40;;;2.30;;
57327;SDS011;43162;51.040;18.244;2023-07-08T04:18:26;4.60;;;2.70;;
57327;SDS011;43162;51.040;18.244;2023-07-08T04:20:52;4.40;;;2.50;;
57327;SDS011;43162;51.040;18.244;2023-07-08T04:23:18;5.80;;;2.70;;
57327;SDS011;43162;51.040;18.244;2023-07-08T04:25:44;8.60;;;3.30;;
57327;SDS011;43162;51.040;18.244;2023-07-08T04:28:10;7.20;;;2.50;;
57327;SDS011;43162;51.040;18.244;2023-07-08T04:30:35;5.00;;;2.40;;
57327;SDS011;43162;51.040;18.244;2023-07-08T04:33:16;5.90;;;2.60;;
57327;SDS011;43162;51.040;18.244;2023-07-08T04:35:42;4.50;;;3.00;;
57327;SDS011;43162;51.040;18.244;2023-07-08T04:38:13;3.80;;;2.50;;
57327;SDS011;43162;51.040;18.244;2023-07-08T04:40:39;4.70;;;2.90;;
57327;SDS011;43162;51.040;18.244;2023-07-08T04:43:06;5.50;;;3.90;;
57327;SDS011;43162;51.040;18.244;2023-07-08T04:45:32;6.60;;;3.80;;
57327;SDS011;43162;51.040;18.244;2023-07-08T04:47:57;5.20;;;3.00;;
57327;SDS011;43162;51.040;18.244;2023-07-08T04:50:23;4.00;;;2.70;;
57327;SDS011;43162;51.040;18.244;2023-07-08T04:52:48;4.70;;;2.20;;
57327;SDS011;43162;51.040;18.244;2023-07-08T04:55:14;5.00;;;2.30;;
57327;SDS011;43162;51.040;18.244;2023-07-08T04:57:40;5.00;;;2.60;;
57327;SDS011;43162;51.040;18.244;2023-07-08T05:00:06;4.50;;;2.60;;
57327;SDS011;43162;51.040;18.244;2023-07-08T05:05:00;4.20;;;2.40;;
57327;SDS011;43162;51.040;18.244;2023-07-08T05:07:26;6.90;;;2.60;;
57327;SDS011;43162;51.040;18.244;2023-07-08T05:09:51;7.10;;;3.00;;
57327;SDS011;43162;51.040;18.244;2023-07-08T05:12:17;7.60;;;3.00;;
57327;SDS011;43162;51.040;18.244;2023-07-08T05:14:42;8.00;;;3.60;;
57327;SDS011;43162;51.040;18.244;2023-07-08T05:17:08;6.90;;;4.20;;
57327;SDS011;43162;51.040;18.244;2023-07-08T05:19:33;7.80;;;4.00;;
57327;SDS011;43162;51.040;18.244;2023-07-08T05:21:59;6.70;;;4.50;;
57327;SDS011;43162;51.040;18.244;2023-07-08T05:24:24;6.90;;;5.40;;
57327;SDS011;43162;51.040;18.244;2023-07-08T05:26:50;10.60;;;5.30;;
57327;SDS011;43162;51.040;18.244;2023-07-08T05:29:15;8.60;;;5.80;;
57327;SDS011;43162;51.040;18.244;2023-07-08T05:31:41;9.50;;;5.00;;
57327;SDS011;43162;51.040;18.244;2023-07-08T05:34:06;9.20;;;6.40;;
57327;SDS011;43162;51.040;18.244;2023-07-08T05:36:32;10.60;;;6.80;;
57327;SDS011;43162;51.040;18.244;2023-07-08T05:38:58;12.60;;;6.70;;
57327;SDS011;43162;51.040;18.244;2023-07-08T05:41:23;13.90;;;7.60;;
57327;SDS011;43162;51.040;18.244;2023-07-08T05:43:49;15.50;;;7.70;;
57327;SDS011;43162;51.040;18.244;2023-07-08T05:46:14;13.90;;;6.10;;
57327;SDS011;43162;51.040;18.244;2023-07-08T05:48:40;9.50;;;5.90;;
57327;SDS011;43162;51.040;18.244;2023-07-08T05:51:05;6.70;;;4.70;;
57327;SDS011;43162;51.040;18.244;2023-07-08T05:53:31;9.60;;;4.50;;
57327;SDS011;43162;51.040;18.244;2023-07-08T05:55:56;10.50;;;4.80;;
57327;SDS011;43162;51.040;18.244;2023-07-08T05:58:22;6.00;;;3.90;;
57327;SDS011;43162;51.040;18.244;2023-07-08T06:00:47;16.00;;;4.30;;
57327;SDS011;43162;51.040;18.244;2023-07-08T06:03:12;9.60;;;4.40;;
57327;SDS011;43162;51.040;18.244;2023-07-08T06:05:38;8.90;;;4.40;;
57327;SDS011;43162;51.040;18.244;2023-07-08T06:08:05;7.30;;;3.80;;
57327;SDS011;43162;51.040;18.244;2023-07-08T06:10:30;5.50;;;3.90;;
57327;SDS011;43162;51.040;18.244;2023-07-08T06:12:56;10.20;;;4.60;;
57327;SDS011;43162;51.040;18.244;2023-07-08T06:15:21;14.80;;;5.20;;
57327;SDS011;43162;51.040;18.244;2023-07-08T06:17:47;12.50;;;5.00;;
57327;SDS011;43162;51.040;18.244;2023-07-08T06:20:12;10.60;;;3.90;;
57327;SDS011;43162;51.040;18.244;2023-07-08T06:22:38;9.10;;;4.10;;
57327;SDS011;43162;51.040;18.244;2023-07-08T06:25:03;12.00;;;4.60;;
57327;SDS011;43162;51.040;18.244;2023-07-08T06:27:29;9.30;;;3.60;;
57327;SDS011;43162;51.040;18.244;2023-07-08T06:29:54;11.80;;;4.60;;
57327;SDS011;43162;51.040;18.244;2023-07-08T06:32:20;7.50;;;4.40;;
57327;SDS011;43162;51.040;18.244;2023-07-08T06:34:45;6.10;;;3.60;;
57327;SDS011;43162;51.040;18.244;2023-07-08T06:37:11;5.60;;;4.10;;
57327;SDS011;43162;51.040;18.244;2023-07-08T06:39:36;5.30;;;4.00;;
57327;SDS011;43162;51.040;18.244;2023-07-08T06:42:02;15.70;;;5.30;;
57327;SDS011;43162;51.040;18.244;2023-07-08T06:44:28;9.60;;;3.70;;
57327;SDS011;43162;51.040;18.244;2023-07-08T06:46:53;6.30;;;4.00;;
57327;SDS011;43162;51.040;18.244;2023-07-08T06:49:19;8.50;;;4.30;;
57327;SDS011;43162;51.040;18.244;2023-07-08T06:51:44;9.60;;;4.20;;
57327;SDS011;43162;51.040;18.244;2023-07-08T06:54:11;5.40;;;4.00;;
57327;SDS011;43162;51.040;18.244;2023-07-08T06:56:37;5.80;;;3.90;;
57327;SDS011;43162;51.040;18.244;2023-07-08T06:59:03;4.80;;;3.40;;
57327;SDS011;43162;51.040;18.244;2023-07-08T07:01:28;4.70;;;3.30;;
57327;SDS011;43162;51.040;18.244;2023-07-08T07:03:54;6.50;;;3.20;;
57327;SDS011;43162;51.040;18.244;2023-07-08T07:06:19;9.10;;;3.40;;
57327;SDS011;43162;51.040;18.244;2023-07-08T07:08:45;8.10;;;3.10;;
57327;SDS011;43162;51.040;18.244;2023-07-08T07:11:10;7.40;;;3.50;;
57327;SDS011;43162;51.040;18.244;2023-07-08T07:13:36;10.10;;;3.70;;
57327;SDS011;43162;51.040;18.244;2023-07-08T07:16:01;4.90;;;3.00;;
57327;SDS011;43162;51.040;18.244;2023-07-08T07:18:27;5.70;;;3.10;;
57327;SDS011;43162;51.040;18.244;2023-07-08T07:20:53;9.90;;;3.70;;
57327;SDS011;43162;51.040;18.244;2023-07-08T07:23:19;7.60;;;3.60;;
57327;SDS011;43162;51.040;18.244;2023-07-08T07:25:47;11.90;;;3.20;;
57327;SDS011;43162;51.040;18.244;2023-07-08T07:28:13;6.40;;;3.20;;
57327;SDS011;43162;51.040;18.244;2023-07-08T07:30:39;5.50;;;3.40;;
57327;SDS011;43162;51.040;18.244;2023-07-08T07:33:05;6.10;;;2.70;;
57327;SDS011;43162;51.040;18.244;2023-07-08T07:35:30;5.50;;;2.60;;
57327;SDS011;43162;51.040;18.244;2023-07-08T07:37:56;4.10;;;2.70;;
57327;SDS011;43162;51.040;18.244;2023-07-08T07:40:21;4.00;;;2.50;;
57327;SDS011;43162;51.040;18.244;2023-07-08T07:42:47;3.20;;;1.80;;
57327;SDS011;43162;51.040;18.244;2023-07-08T07:45:12;6.40;;;2.80;;
57327;SDS011;43162;51.040;18.244;2023-07-08T07:47:38;6.70;;;2.40;;
57327;SDS011;43162;51.040;18.244;2023-07-08T07:50:04;13.40;;;2.40;;
57327;SDS011;43162;51.040;18.244;2023-07-08T07:52:30;3.50;;;2.50;;
57327;SDS011;43162;51.040;18.244;2023-07-08T07:54:56;4.90;;;2.20;;
57327;SDS011;43162;51.040;18.244;2023-07-08T07:57:22;4.00;;;2.20;;
57327;SDS011;43162;51.040;18.244;2023-07-08T07:59:48;5.30;;;2.00;;
57327;SDS011;43162;51.040;18.244;2023-07-08T08:02:14;7.30;;;2.40;;
57327;SDS011;43162;51.040;18.244;2023-07-08T08:04:40;6.40;;;2.20;;
57327;SDS011;43162;51.040;18.244;2023-07-08T08:07:05;3.40;;;1.80;;
57327;SDS011;43162;51.040;18.244;2023-07-08T08:09:31;2.40;;;1.90;;
57327;SDS011;43162;51.040;18.244;2023-07-08T08:11:56;5.40;;;1.50;;
57327;SDS011;43162;51.040;18.244;2023-07-08T08:14:22;2.80;;;1.70;;
57327;SDS011;43162;51.040;18.244;2023-07-08T08:16:47;5.70;;;1.80;;
57327;SDS011;43162;51.040;18.244;2023-07-08T08:19:13;6.60;;;1.80;;
57327;SDS011;43162;51.040;18.244;2023-07-08T08:21:38;3.00;;;2.10;;
57327;SDS011;43162;51.040;18.244;2023-07-08T08:24:04;6.00;;;1.90;;
57327;SDS011;43162;51.040;18.244;2023-07-08T08:26:30;3.30;;;2.10;;
57327;SDS011;43162;51.040;18.244;2023-07-08T08:28:55;5.00;;;1.90;;
57327;SDS011;43162;51.040;18.244;2023-07-08T08:31:20;2.80;;;1.60;;
57327;SDS011;43162;51.040;18.244;2023-07-08T08:33:46;2.00;;;1.30;;
57327;SDS011;43162;51.040;18.244;2023-07-08T08:36:11;4.70;;;1.30;;
57327;SDS011;43162;51.040;18.244;2023-07-08T08:38:37;2.10;;;1.50;;
57327;SDS011;43162;51.040;18.244;2023-07-08T08:41:04;5.00;;;1.80;;
57327;SDS011;43162;51.040;18.244;2023-07-08T08:43:35;4.30;;;2.50;;
57327;SDS011;43162;51.040;18.244;2023-07-08T08:49:05;5.80;;;1.90;;
57327;SDS011;43162;51.040;18.244;2023-07-08T08:51:36;6.10;;;2.10;;
57327;SDS011;43162;51.040;18.244;2023-07-08T08:54:01;5.60;;;1.80;;
57327;SDS011;43162;51.040;18.244;2023-07-08T08:56:28;5.90;;;1.90;;
57327;SDS011;43162;51.040;18.244;2023-07-08T09:01:37;11.10;;;2.50;;
57327;SDS011;43162;51.040;18.244;2023-07-08T09:04:05;2.60;;;1.90;;
57327;SDS011;43162;51.040;18.244;2023-07-08T09:06:32;4.10;;;1.90;;
57327;SDS011;43162;51.040;18.244;2023-07-08T09:11:51;8.90;;;2.00;;
57327;SDS011;43162;51.040;18.244;2023-07-08T09:19:29;3.10;;;1.90;;
57327;SDS011;43162;51.040;18.244;2023-07-08T09:22:03;8.30;;;2.70;;
57327;SDS011;43162;51.040;18.244;2023-07-08T09:26:55;4.60;;;1.90;;
57327;SDS011;43162;51.040;18.244;2023-07-08T09:29:23;3.60;;;2.00;;
57327;SDS011;43162;51.040;18.244;2023-07-08T09:31:49;3.60;;;1.80;;
57327;SDS011;43162;51.040;18.244;2023-07-08T09:34:15;4.20;;;2.10;;
57327;SDS011;43162;51.040;18.244;2023-07-08T09:36:42;5.10;;;1.90;;
57327;SDS011;43162;51.040;18.244;2023-07-08T09:39:15;4.10;;;1.70;;
57327;SDS011;43162;51.040;18.244;2023-07-08T09:41:41;11.40;;;2.10;;
57327;SDS011;43162;51.040;18.244;2023-07-08T09:44:18;2.40;;;1.70;;
57327;SDS011;43162;51.040;18.244;2023-07-08T09:46:44;8.30;;;1.90;;
57327;SDS011;43162;51.040;18.244;2023-07-08T09:51:39;3.80;;;1.90;;
57327;SDS011;43162;51.040;18.244;2023-07-08T09:54:04;5.80;;;2.00;;
57327;SDS011;43162;51.040;18.244;2023-07-08T09:56:30;5.40;;;2.00;;
57327;SDS011;43162;51.040;18.244;2023-07-08T09:58:55;4.60;;;2.00;;
57327;SDS011;43162;51.040;18.244;2023-07-08T10:01:23;3.10;;;2.00;;
57327;SDS011;43162;51.040;18.244;2023-07-08T10:03:49;2.70;;;1.90;;
57327;SDS011;43162;51.040;18.244;2023-07-08T10:06:20;6.20;;;2.00;;
57327;SDS011;43162;51.040;18.244;2023-07-08T10:08:46;4.90;;;2.00;;
57327;SDS011;43162;51.040;18.244;2023-07-08T10:13:58;7.20;;;1.70;;
57327;SDS011;43162;51.040;18.244;2023-07-08T10:16:28;6.00;;;1.90;;
57327;SDS011;43162;51.040;18.244;2023-07-08T10:18:54;3.60;;;1.80;;
57327;SDS011;43162;51.040;18.244;2023-07-08T10:21:27;2.70;;;1.40;;
57327;SDS011;43162;51.040;18.244;2023-07-08T10:26:25;3.50;;;2.00;;
57327;SDS011;43162;51.040;18.244;2023-07-08T10:42:01;3.30;;;1.90;;
57327;SDS011;43162;51.040;18.244;2023-07-08T11:10:29;4.40;;;1.80;;
57327;SDS011;43162;51.040;18.244;2023-07-08T11:13:10;2.90;;;1.60;;
57327;SDS011;43162;51.040;18.244;2023-07-08T11:15:49;4.40;;;2.00;;
57327;SDS011;43162;51.040;18.244;2023-07-08T11:18:23;1.50;;;1.30;;
57327;SDS011;43162;51.040;18.244;2023-07-08T11:21:00;1.30;;;1.20;;
57327;SDS011;43162;51.040;18.244;2023-07-08T11:23:38;5.20;;;1.60;;
57327;SDS011;43162;51.040;18.244;2023-07-08T11:28:49;1.60;;;1.20;;
57327;SDS011;43162;51.040;18.244;2023-07-08T11:31:16;3.10;;;1.50;;
57327;SDS011;43162;51.040;18.244;2023-07-08T11:33:43;5.30;;;1.90;;
57327;SDS011;43162;51.040;18.244;2023-07-08T11:36:09;2.50;;;1.30;;
57327;SDS011;43162;51.040;18.244;2023-07-08T11:38:35;4.80;;;1.50;;
57327;SDS011;43162;51.040;18.244;2023-07-08T11:41:04;17.60;;;2.00;;
57327;SDS011;43162;51.040;18.244;2023-07-08T11:46:11;1.60;;;1.40;;
57327;SDS011;43162;51.040;18.244;2023-07-08T11:48:42;4.90;;;1.70;;
57327;SDS011;43162;51.040;18.244;2023-07-08T11:51:09;1.90;;;1.30;;
57327;SDS011;43162;51.040;18.244;2023-07-08T11:53:50;3.80;;;1.50;;
57327;SDS011;43162;51.040;18.244;2023-07-08T12:08:56;12.70;;;2.50;;
57327;SDS011;43162;51.040;18.244;2023-07-08T12:11:31;11.00;;;2.30;;
57327;SDS011;43162;51.040;18.244;2023-07-08T12:14:01;11.30;;;2.20;;
57327;SDS011;43162;51.040;18.244;2023-07-08T12:16:28;4.00;;;1.80;;
57327;SDS011;43162;51.040;18.244;2023-07-08T12:18:54;3.70;;;1.90;;
57327;SDS011;43162;51.040;18.244;2023-07-08T12:21:22;2.40;;;2.10;;
57327;SDS011;43162;51.040;18.244;2023-07-08T12:23:48;2.30;;;1.70;;
57327;SDS011;43162;51.040;18.244;2023-07-08T12:26:14;3.40;;;2.00;;
57327;SDS011;43162;51.040;18.244;2023-07-08T12:28:41;4.40;;;1.70;;
57327;SDS011;43162;51.040;18.244;2023-07-08T12:31:15;2.50;;;1.50;;
57327;SDS011;43162;51.040;18.244;2023-07-08T12:33:41;3.70;;;2.10;;
57327;SDS011;43162;51.040;18.244;2023-07-08T12:36:09;5.20;;;2.20;;
57327;SDS011;43162;51.040;18.244;2023-07-08T12:38:37;8.30;;;2.00;;
57327;SDS011;43162;51.040;18.244;2023-07-08T12:41:15;5.30;;;2.30;;
57327;SDS011;43162;51.040;18.244;2023-07-08T12:43:42;2.10;;;1.90;;
57327;SDS011;43162;51.040;18.244;2023-07-08T12:46:11;3.10;;;2.00;;
57327;SDS011;43162;51.040;18.244;2023-07-08T12:51:03;2.30;;;1.80;;
57327;SDS011;43162;51.040;18.244;2023-07-08T12:53:29;5.00;;;2.10;;
57327;SDS011;43162;51.040;18.244;2023-07-08T12:55:57;2.90;;;2.00;;
57327;SDS011;43162;51.040;18.244;2023-07-08T12:58:25;4.60;;;2.40;;
57327;SDS011;43162;51.040;18.244;2023-07-08T13:00:52;6.50;;;2.30;;
57327;SDS011;43162;51.040;18.244;2023-07-08T13:03:21;6.70;;;2.10;;
57327;SDS011;43162;51.040;18.244;2023-07-08T13:05:48;2.70;;;1.50;;
57327;SDS011;43162;51.040;18.244;2023-07-08T13:08:14;3.80;;;1.80;;
57327;SDS011;43162;51.040;18.244;2023-07-08T13:10:41;2.60;;;1.70;;
57327;SDS011;43162;51.040;18.244;2023-07-08T13:13:24;6.00;;;1.70;;
57327;SDS011;43162;51.040;18.244;2023-07-08T13:15:50;4.40;;;2.20;;
57327;SDS011;43162;51.040;18.244;2023-07-08T13:18:17;3.60;;;2.00;;
57327;SDS011;43162;51.040;18.244;2023-07-08T13:20:45;2.70;;;1.80;;
57327;SDS011;43162;51.040;18.244;2023-07-08T13:23:12;4.60;;;2.10;;
57327;SDS011;43162;51.040;18.244;2023-07-08T13:25:38;5.20;;;2.10;;
57327;SDS011;43162;51.040;18.244;2023-07-08T13:28:17;5.00;;;1.70;;
57327;SDS011;43162;51.040;18.244;2023-07-08T13:30:55;1.70;;;1.50;;
57327;SDS011;43162;51.040;18.244;2023-07-08T13:35:47;2.80;;;1.70;;
57327;SDS011;43162;51.040;18.244;2023-07-08T13:38:14;3.20;;;1.70;;
57327;SDS011;43162;51.040;18.244;2023-07-08T13:40:46;3.80;;;1.60;;
57327;SDS011;43162;51.040;18.244;2023-07-08T13:43:11;3.00;;;1.60;;
57327;SDS011;43162;51.040;18.244;2023-07-08T13:45:37;2.10;;;1.50;;
57327;SDS011;43162;51.040;18.244;2023-07-08T13:48:22;2.50;;;2.10;;
57327;SDS011;43162;51.040;18.244;2023-07-08T13:50:52;3.90;;;1.40;;
57327;SDS011;43162;51.040;18.244;2023-07-08T13:53:21;2.90;;;1.40;;
57327;SDS011;43162;51.040;18.244;2023-07-08T13:55:48;4.00;;;1.80;;
57327;SDS011;43162;51.040;18.244;2023-07-08T13:58:15;2.60;;;1.70;;
57327;SDS011;43162;51.040;18.244;2023-07-08T14:00:41;3.60;;;1.80;;
57327;SDS011;43162;51.040;18.244;2023-07-08T14:03:10;4.20;;;1.10;;
57327;SDS011;43162;51.040;18.244;2023-07-08T14:05:39;2.00;;;1.60;;
57327;SDS011;43162;51.040;18.244;2023-07-08T14:08:23;3.10;;;1.50;;
57327;SDS011;43162;51.040;18.244;2023-07-08T14:10:49;2.90;;;1.40;;
57327;SDS011;43162;51.040;18.244;2023-07-08T14:13:14;1.80;;;1.40;;
57327;SDS011;43162;51.040;18.244;2023-07-08T14:15:41;1.60;;;1.10;;
57327;SDS011;43162;51.040;18.244;2023-07-08T14:18:07;5.40;;;1.70;;
57327;SDS011;43162;51.040;18.244;2023-07-08T14:20:33;5.90;;;1.70;;
57327;SDS011;43162;51.040;18.244;2023-07-08T14:22:59;6.00;;;1.60;;
57327;SDS011;43162;51.040;18.244;2023-07-08T14:25:24;1.60;;;1.50;;
57327;SDS011;43162;51.040;18.244;2023-07-08T14:27:50;3.40;;;1.60;;
57327;SDS011;43162;51.040;18.244;2023-07-08T14:30:16;2.60;;;1.80;;
57327;SDS011;43162;51.040;18.244;2023-07-08T14:32:41;8.70;;;1.70;;
57327;SDS011;43162;51.040;18.244;2023-07-08T14:37:36;2.00;;;1.50;;
57327;SDS011;43162;51.040;18.244;2023-07-08T14:40:10;2.50;;;1.20;;
57327;SDS011;43162;51.040;18.244;2023-07-08T14:42:39;1.30;;;1.20;;
57327;SDS011;43162;51.040;18.244;2023-07-08T14:45:04;3.20;;;1.60;;
57327;SDS011;43162;51.040;18.244;2023-07-08T14:47:32;2.50;;;1.70;;
57327;SDS011;43162;51.040;18.244;2023-07-08T14:49:58;3.90;;;1.50;;
57327;SDS011;43162;51.040;18.244;2023-07-08T14:52:23;6.90;;;1.60;;
57327;SDS011;43162;51.040;18.244;2023-07-08T14:54:49;1.90;;;1.50;;
57327;SDS011;43162;51.040;18.244;2023-07-08T14:57:15;2.00;;;1.50;;
57327;SDS011;43162;51.040;18.244;2023-07-08T14:59:41;2.80;;;1.40;;
57327;SDS011;43162;51.040;18.244;2023-07-08T15:02:15;1.60;;;1.40;;
57327;SDS011;43162;51.040;18.244;2023-07-08T15:04:42;2.70;;;1.60;;
57327;SDS011;43162;51.040;18.244;2023-07-08T15:07:08;3.10;;;1.90;;
57327;SDS011;43162;51.040;18.244;2023-07-08T15:09:33;9.90;;;2.00;;
57327;SDS011;43162;51.040;18.244;2023-07-08T15:11:59;2.10;;;1.60;;
57327;SDS011;43162;51.040;18.244;2023-07-08T15:14:25;1.50;;;1.40;;
57327;SDS011;43162;51.040;18.244;2023-07-08T15:16:51;2.30;;;1.50;;
57327;SDS011;43162;51.040;18.244;2023-07-08T15:19:18;2.20;;;1.70;;
57327;SDS011;43162;51.040;18.244;2023-07-08T15:21:44;1.90;;;1.70;;
57327;SDS011;43162;51.040;18.244;2023-07-08T15:24:10;3.50;;;1.60;;
57327;SDS011;43162;51.040;18.244;2023-07-08T15:29:04;3.50;;;1.90;;
57327;SDS011;43162;51.040;18.244;2023-07-08T15:31:30;7.30;;;1.90;;
57327;SDS011;43162;51.040;18.244;2023-07-08T15:33:57;4.70;;;1.40;;
57327;SDS011;43162;51.040;18.244;2023-07-08T15:36:23;3.00;;;1.50;;
57327;SDS011;43162;51.040;18.244;2023-07-08T15:38:48;8.50;;;1.80;;
57327;SDS011;43162;51.040;18.244;2023-07-08T15:41:21;2.30;;;1.80;;
57327;SDS011;43162;51.040;18.244;2023-07-08T15:43:48;3.30;;;1.70;;
57327;SDS011;43162;51.040;18.244;2023-07-08T15:46:13;1.60;;;1.30;;
57327;SDS011;43162;51.040;18.244;2023-07-08T15:48:39;4.30;;;1.40;;
57327;SDS011;43162;51.040;18.244;2023-07-08T15:51:05;4.70;;;1.60;;
57327;SDS011;43162;51.040;18.244;2023-07-08T15:53:30;2.20;;;2.00;;
57327;SDS011;43162;51.040;18.244;2023-07-08T15:55:56;4.90;;;1.90;;
57327;SDS011;43162;51.040;18.244;2023-07-08T16:00:48;5.20;;;4.70;;
57327;SDS011;43162;51.040;18.244;2023-07-08T16:03:18;3.70;;;1.60;;
57327;SDS011;43162;51.040;18.244;2023-07-08T16:05:47;3.30;;;1.60;;
57327;SDS011;43162;51.040;18.244;2023-07-08T16:08:12;7.00;;;2.40;;
57327;SDS011;43162;51.040;18.244;2023-07-08T16:10:38;2.30;;;1.70;;
57327;SDS011;43162;51.040;18.244;2023-07-08T16:13:03;1.50;;;1.30;;
57327;SDS011;43162;51.040;18.244;2023-07-08T16:15:32;6.30;;;1.70;;